KPRC/PRC METAR and TAF weather

Enter ICAO airport designator
Station Type Date Time Source
KPRC METAR 2021/03/08 10:53 UTC NOAA

KPRC 081053Z AUTO 22006KT 10SM BKN110 11/M08 A3011 RMK AO2 SLP140 T01111078


Station Type Date Time Source
KPRC Decoded METAR 2021/03/08 10:53 UTC NOAA

PRESCOTT LOVE FIELD, AZ, United States (KPRC) 34-39N 112-25W 1524M
Mar 08, 2021 - 05:53 AM EST / 2021.03.08 1053 UTC
Wind: from the SW (220 degrees) at 7 MPH (6 KT):0
Visibility: 10 mile(s):0
Sky conditions: mostly cloudy
Temperature: 52.0 F (11.1 C)
Dew Point: 18.0 F (-7.8 C)
Relative Humidity: 25%
Pressure (altimeter): 30.11 in. Hg (1019 hPa)
ob: KPRC 081053Z AUTO 22006KT 10SM BKN110 11/M08 A3011 RMK AO2 SLP140 T01111078
cycle: 11

Station Type Date Time Source
KPRC TAF 2021/03/08 12:36 UTC NOAA

TAF KPRC 081133Z 0812/0912 15009KT P6SM SCT100 BKN250
FM081500 18010G20KT P6SM FEW250
FM081900 20015G25KT P6SM SKC
FM090300 19008G16KT P6SM SCT250
FM090700 12006KT P6SM BKN200

Example: see airport list